sensor_id;sensor_type;location;lat;lon;timestamp;P1;durP1;ratioP1;P2;durP2;ratioP2
37297;SDS011;30517;51.932;4.278;2023-04-24T00:00:33;2.05;;;0.70;;
37297;SDS011;30517;51.932;4.278;2023-04-24T00:03:14;1.63;;;0.60;;
37297;SDS011;30517;51.932;4.278;2023-04-24T00:05:54;0.50;;;0.50;;
37297;SDS011;30517;51.932;4.278;2023-04-24T00:08:35;1.33;;;0.80;;
37297;SDS011;30517;51.932;4.278;2023-04-24T00:11:16;1.45;;;0.60;;
37297;SDS011;30517;51.932;4.278;2023-04-24T00:13:57;1.63;;;0.82;;
37297;SDS011;30517;51.932;4.278;2023-04-24T00:16:38;1.35;;;0.70;;
37297;SDS011;30517;51.932;4.278;2023-04-24T00:19:19;1.38;;;0.65;;
37297;SDS011;30517;51.932;4.278;2023-04-24T00:22:01;0.70;;;0.55;;
37297;SDS011;30517;51.932;4.278;2023-04-24T00:24:43;1.02;;;0.68;;
37297;SDS011;30517;51.932;4.278;2023-04-24T00:27:24;1.58;;;0.70;;
37297;SDS011;30517;51.932;4.278;2023-04-24T00:30:05;1.23;;;0.70;;
37297;SDS011;30517;51.932;4.278;2023-04-24T00:32:46;2.38;;;0.88;;
37297;SDS011;30517;51.932;4.278;2023-04-24T00:35:27;1.10;;;0.50;;
37297;SDS011;30517;51.932;4.278;2023-04-24T00:38:08;1.95;;;0.70;;
37297;SDS011;30517;51.932;4.278;2023-04-24T00:40:49;1.60;;;0.75;;
37297;SDS011;30517;51.932;4.278;2023-04-24T00:43:30;2.20;;;0.75;;
37297;SDS011;30517;51.932;4.278;2023-04-24T00:46:11;3.67;;;0.73;;
37297;SDS011;30517;51.932;4.278;2023-04-24T00:48:52;0.93;;;0.70;;
37297;SDS011;30517;51.932;4.278;2023-04-24T00:51:33;1.25;;;0.70;;
37297;SDS011;30517;51.932;4.278;2023-04-24T00:54:14;3.15;;;0.68;;
37297;SDS011;30517;51.932;4.278;2023-04-24T00:56:56;1.02;;;0.80;;
37297;SDS011;30517;51.932;4.278;2023-04-24T00:59:37;1.42;;;0.68;;
37297;SDS011;30517;51.932;4.278;2023-04-24T01:02:18;2.40;;;0.90;;
37297;SDS011;30517;51.932;4.278;2023-04-24T01:05:00;2.15;;;0.95;;
37297;SDS011;30517;51.932;4.278;2023-04-24T01:07:43;1.67;;;0.90;;
37297;SDS011;30517;51.932;4.278;2023-04-24T01:10:25;2.50;;;0.93;;
37297;SDS011;30517;51.932;4.278;2023-04-24T01:13:08;2.17;;;1.10;;
37297;SDS011;30517;51.932;4.278;2023-04-24T01:15:49;2.13;;;0.93;;
37297;SDS011;30517;51.932;4.278;2023-04-24T01:18:30;1.45;;;1.05;;
37297;SDS011;30517;51.932;4.278;2023-04-24T01:21:10;2.05;;;0.90;;
37297;SDS011;30517;51.932;4.278;2023-04-24T01:23:55;2.17;;;1.05;;
37297;SDS011;30517;51.932;4.278;2023-04-24T01:26:36;2.25;;;1.20;;
37297;SDS011;30517;51.932;4.278;2023-04-24T01:29:17;2.17;;;1.02;;
37297;SDS011;30517;51.932;4.278;2023-04-24T01:31:58;1.33;;;0.85;;
37297;SDS011;30517;51.932;4.278;2023-04-24T01:34:39;1.85;;;1.00;;
37297;SDS011;30517;51.932;4.278;2023-04-24T01:37:21;2.80;;;0.95;;
37297;SDS011;30517;51.932;4.278;2023-04-24T01:40:02;1.88;;;0.80;;
37297;SDS011;30517;51.932;4.278;2023-04-24T01:42:44;1.58;;;0.85;;
37297;SDS011;30517;51.932;4.278;2023-04-24T01:45:28;2.38;;;1.00;;
37297;SDS011;30517;51.932;4.278;2023-04-24T01:48:09;2.63;;;1.00;;
37297;SDS011;30517;51.932;4.278;2023-04-24T01:50:50;1.40;;;0.85;;
37297;SDS011;30517;51.932;4.278;2023-04-24T01:53:30;2.72;;;1.00;;
37297;SDS011;30517;51.932;4.278;2023-04-24T01:56:11;2.70;;;0.90;;
37297;SDS011;30517;51.932;4.278;2023-04-24T01:58:52;1.70;;;0.90;;
37297;SDS011;30517;51.932;4.278;2023-04-24T02:01:35;1.92;;;0.93;;
37297;SDS011;30517;51.932;4.278;2023-04-24T02:04:16;1.52;;;0.80;;
37297;SDS011;30517;51.932;4.278;2023-04-24T02:06:57;1.23;;;0.82;;
37297;SDS011;30517;51.932;4.278;2023-04-24T02:09:37;2.35;;;1.00;;
37297;SDS011;30517;51.932;4.278;2023-04-24T02:12:18;1.90;;;0.98;;
37297;SDS011;30517;51.932;4.278;2023-04-24T02:14:59;1.52;;;0.80;;
37297;SDS011;30517;51.932;4.278;2023-04-24T02:17:40;1.48;;;0.90;;
37297;SDS011;30517;51.932;4.278;2023-04-24T02:20:21;1.48;;;0.90;;
37297;SDS011;30517;51.932;4.278;2023-04-24T02:23:02;1.45;;;0.85;;
37297;SDS011;30517;51.932;4.278;2023-04-24T02:25:42;1.92;;;0.90;;
37297;SDS011;30517;51.932;4.278;2023-04-24T02:28:23;2.30;;;0.85;;
37297;SDS011;30517;51.932;4.278;2023-04-24T02:31:04;1.98;;;1.00;;
37297;SDS011;30517;51.932;4.278;2023-04-24T02:33:46;1.33;;;0.80;;
37297;SDS011;30517;51.932;4.278;2023-04-24T02:36:27;2.30;;;1.02;;
37297;SDS011;30517;51.932;4.278;2023-04-24T02:39:08;2.17;;;0.80;;
37297;SDS011;30517;51.932;4.278;2023-04-24T02:41:48;1.65;;;0.80;;
37297;SDS011;30517;51.932;4.278;2023-04-24T02:44:29;1.23;;;0.80;;
37297;SDS011;30517;51.932;4.278;2023-04-24T02:47:10;1.42;;;0.80;;
37297;SDS011;30517;51.932;4.278;2023-04-24T02:49:51;1.58;;;0.80;;
37297;SDS011;30517;51.932;4.278;2023-04-24T02:52:32;1.27;;;0.80;;
37297;SDS011;30517;51.932;4.278;2023-04-24T02:55:12;2.05;;;1.00;;
37297;SDS011;30517;51.932;4.278;2023-04-24T02:57:53;1.08;;;0.80;;
37297;SDS011;30517;51.932;4.278;2023-04-24T03:00:34;2.25;;;0.90;;
37297;SDS011;30517;51.932;4.278;2023-04-24T03:03:15;1.45;;;0.80;;
37297;SDS011;30517;51.932;4.278;2023-04-24T03:05:56;2.35;;;0.77;;
37297;SDS011;30517;51.932;4.278;2023-04-24T03:08:37;1.45;;;0.90;;
37297;SDS011;30517;51.932;4.278;2023-04-24T03:11:18;1.38;;;0.80;;
37297;SDS011;30517;51.932;4.278;2023-04-24T03:13:59;1.25;;;0.60;;
37297;SDS011;30517;51.932;4.278;2023-04-24T03:16:40;2.58;;;1.00;;
37297;SDS011;30517;51.932;4.278;2023-04-24T03:19:20;1.42;;;0.73;;
37297;SDS011;30517;51.932;4.278;2023-04-24T03:22:02;1.25;;;0.80;;
37297;SDS011;30517;51.932;4.278;2023-04-24T03:24:43;0.85;;;0.60;;
37297;SDS011;30517;51.932;4.278;2023-04-24T03:27:24;2.80;;;1.00;;
37297;SDS011;30517;51.932;4.278;2023-04-24T03:30:06;0.70;;;0.70;;
37297;SDS011;30517;51.932;4.278;2023-04-24T03:32:47;0.80;;;0.73;;
37297;SDS011;30517;51.932;4.278;2023-04-24T03:35:28;3.15;;;0.70;;
37297;SDS011;30517;51.932;4.278;2023-04-24T03:38:09;2.72;;;0.90;;
37297;SDS011;30517;51.932;4.278;2023-04-24T03:40:50;1.70;;;0.70;;
37297;SDS011;30517;51.932;4.278;2023-04-24T03:43:31;1.10;;;0.70;;
37297;SDS011;30517;51.932;4.278;2023-04-24T03:46:13;2.53;;;0.73;;
37297;SDS011;30517;51.932;4.278;2023-04-24T03:48:55;4.60;;;0.82;;
37297;SDS011;30517;51.932;4.278;2023-04-24T03:51:35;1.52;;;0.85;;
37297;SDS011;30517;51.932;4.278;2023-04-24T03:54:16;2.83;;;1.00;;
37297;SDS011;30517;51.932;4.278;2023-04-24T03:56:57;4.90;;;1.67;;
37297;SDS011;30517;51.932;4.278;2023-04-24T03:59:38;3.45;;;1.30;;
37297;SDS011;30517;51.932;4.278;2023-04-24T04:02:19;2.65;;;0.80;;
37297;SDS011;30517;51.932;4.278;2023-04-24T04:05:00;2.35;;;0.90;;
37297;SDS011;30517;51.932;4.278;2023-04-24T04:07:40;3.47;;;1.00;;
37297;SDS011;30517;51.932;4.278;2023-04-24T04:10:21;2.28;;;1.00;;
37297;SDS011;30517;51.932;4.278;2023-04-24T04:13:02;4.47;;;1.30;;
37297;SDS011;30517;51.932;4.278;2023-04-24T04:15:43;2.42;;;1.13;;
37297;SDS011;30517;51.932;4.278;2023-04-24T04:18:24;3.80;;;1.20;;
37297;SDS011;30517;51.932;4.278;2023-04-24T04:21:04;3.45;;;1.55;;
37297;SDS011;30517;51.932;4.278;2023-04-24T04:23:45;5.80;;;1.42;;
37297;SDS011;30517;51.932;4.278;2023-04-24T04:26:26;6.53;;;1.70;;
37297;SDS011;30517;51.932;4.278;2023-04-24T04:29:07;3.63;;;1.17;;
37297;SDS011;30517;51.932;4.278;2023-04-24T04:31:48;4.20;;;1.40;;
37297;SDS011;30517;51.932;4.278;2023-04-24T04:34:28;4.53;;;1.40;;
37297;SDS011;30517;51.932;4.278;2023-04-24T04:37:09;3.83;;;1.60;;
37297;SDS011;30517;51.932;4.278;2023-04-24T04:39:51;3.47;;;1.90;;
37297;SDS011;30517;51.932;4.278;2023-04-24T04:42:33;4.32;;;1.73;;
37297;SDS011;30517;51.932;4.278;2023-04-24T04:45:14;5.07;;;2.35;;
37297;SDS011;30517;51.932;4.278;2023-04-24T04:47:56;8.60;;;3.47;;
37297;SDS011;30517;51.932;4.278;2023-04-24T04:50:37;11.27;;;3.70;;
37297;SDS011;30517;51.932;4.278;2023-04-24T04:53:18;9.38;;;3.60;;
37297;SDS011;30517;51.932;4.278;2023-04-24T04:55:59;5.80;;;3.22;;
37297;SDS011;30517;51.932;4.278;2023-04-24T04:58:40;11.15;;;4.13;;
37297;SDS011;30517;51.932;4.278;2023-04-24T05:01:21;10.63;;;3.17;;
37297;SDS011;30517;51.932;4.278;2023-04-24T05:04:03;10.48;;;3.90;;
37297;SDS011;30517;51.932;4.278;2023-04-24T05:06:44;7.35;;;3.47;;
37297;SDS011;30517;51.932;4.278;2023-04-24T05:09:25;11.77;;;4.30;;
37297;SDS011;30517;51.932;4.278;2023-04-24T05:12:07;10.05;;;3.75;;
37297;SDS011;30517;51.932;4.278;2023-04-24T05:14:48;10.60;;;3.95;;
37297;SDS011;30517;51.932;4.278;2023-04-24T05:17:29;8.07;;;3.40;;
37297;SDS011;30517;51.932;4.278;2023-04-24T05:20:10;7.25;;;3.53;;
37297;SDS011;30517;51.932;4.278;2023-04-24T05:22:50;8.50;;;3.95;;
37297;SDS011;30517;51.932;4.278;2023-04-24T05:25:31;8.82;;;3.72;;
37297;SDS011;30517;51.932;4.278;2023-04-24T05:28:15;7.65;;;3.97;;
37297;SDS011;30517;51.932;4.278;2023-04-24T05:30:56;10.05;;;4.47;;
37297;SDS011;30517;51.932;4.278;2023-04-24T05:33:36;8.50;;;4.07;;
37297;SDS011;30517;51.932;4.278;2023-04-24T05:36:17;8.25;;;4.05;;
37297;SDS011;30517;51.932;4.278;2023-04-24T05:38:58;6.28;;;3.78;;
37297;SDS011;30517;51.932;4.278;2023-04-24T05:41:39;10.02;;;4.18;;
37297;SDS011;30517;51.932;4.278;2023-04-24T05:44:20;9.35;;;3.83;;
37297;SDS011;30517;51.932;4.278;2023-04-24T05:47:01;10.50;;;4.00;;
37297;SDS011;30517;51.932;4.278;2023-04-24T05:49:42;7.97;;;3.95;;
37297;SDS011;30517;51.932;4.278;2023-04-24T05:52:23;7.03;;;3.55;;
37297;SDS011;30517;51.932;4.278;2023-04-24T05:55:04;7.75;;;3.35;;
37297;SDS011;30517;51.932;4.278;2023-04-24T05:57:45;7.28;;;3.50;;
37297;SDS011;30517;51.932;4.278;2023-04-24T06:00:27;8.05;;;3.80;;
37297;SDS011;30517;51.932;4.278;2023-04-24T06:03:08;8.18;;;3.78;;
37297;SDS011;30517;51.932;4.278;2023-04-24T06:05:50;9.15;;;3.45;;
37297;SDS011;30517;51.932;4.278;2023-04-24T06:08:31;5.57;;;3.28;;
37297;SDS011;30517;51.932;4.278;2023-04-24T06:11:12;8.65;;;3.80;;
37297;SDS011;30517;51.932;4.278;2023-04-24T06:13:53;13.02;;;3.78;;
37297;SDS011;30517;51.932;4.278;2023-04-24T06:16:34;8.43;;;3.30;;
37297;SDS011;30517;51.932;4.278;2023-04-24T06:19:15;9.93;;;3.33;;
37297;SDS011;30517;51.932;4.278;2023-04-24T06:21:56;9.75;;;4.07;;
37297;SDS011;30517;51.932;4.278;2023-04-24T06:24:37;7.07;;;3.58;;
37297;SDS011;30517;51.932;4.278;2023-04-24T06:27:18;8.32;;;4.10;;
37297;SDS011;30517;51.932;4.278;2023-04-24T06:29:59;7.35;;;3.47;;
37297;SDS011;30517;51.932;4.278;2023-04-24T06:32:39;6.45;;;2.88;;
37297;SDS011;30517;51.932;4.278;2023-04-24T06:35:20;10.95;;;3.72;;
37297;SDS011;30517;51.932;4.278;2023-04-24T06:38:01;6.53;;;2.78;;
37297;SDS011;30517;51.932;4.278;2023-04-24T06:40:42;6.35;;;2.67;;
37297;SDS011;30517;51.932;4.278;2023-04-24T06:43:23;7.93;;;3.45;;
37297;SDS011;30517;51.932;4.278;2023-04-24T06:46:04;6.68;;;2.97;;
37297;SDS011;30517;51.932;4.278;2023-04-24T06:48:45;10.60;;;3.17;;
37297;SDS011;30517;51.932;4.278;2023-04-24T06:51:26;14.13;;;3.28;;
37297;SDS011;30517;51.932;4.278;2023-04-24T06:54:07;10.25;;;2.67;;
37297;SDS011;30517;51.932;4.278;2023-04-24T06:56:48;10.30;;;3.20;;
37297;SDS011;30517;51.932;4.278;2023-04-24T06:59:32;5.22;;;2.33;;
37297;SDS011;30517;51.932;4.278;2023-04-24T07:02:13;6.03;;;2.60;;
37297;SDS011;30517;51.932;4.278;2023-04-24T07:04:54;7.07;;;2.58;;
37297;SDS011;30517;51.932;4.278;2023-04-24T07:07:34;8.35;;;2.55;;
37297;SDS011;30517;51.932;4.278;2023-04-24T07:10:17;4.05;;;2.10;;
37297;SDS011;30517;51.932;4.278;2023-04-24T07:12:58;7.20;;;2.70;;
37297;SDS011;30517;51.932;4.278;2023-04-24T07:15:39;5.45;;;2.30;;
37297;SDS011;30517;51.932;4.278;2023-04-24T07:18:21;7.22;;;2.40;;
37297;SDS011;30517;51.932;4.278;2023-04-24T07:21:03;7.78;;;2.53;;
37297;SDS011;30517;51.932;4.278;2023-04-24T07:23:43;9.05;;;2.72;;
37297;SDS011;30517;51.932;4.278;2023-04-24T07:26:25;5.25;;;2.30;;
37297;SDS011;30517;51.932;4.278;2023-04-24T07:29:06;9.32;;;2.78;;
37297;SDS011;30517;51.932;4.278;2023-04-24T07:31:48;7.50;;;2.10;;
37297;SDS011;30517;51.932;4.278;2023-04-24T07:34:29;7.32;;;2.47;;
37297;SDS011;30517;51.932;4.278;2023-04-24T07:37:10;7.28;;;2.35;;
37297;SDS011;30517;51.932;4.278;2023-04-24T07:39:51;4.30;;;1.75;;
37297;SDS011;30517;51.932;4.278;2023-04-24T07:42:32;6.28;;;2.25;;
37297;SDS011;30517;51.932;4.278;2023-04-24T07:45:14;6.07;;;1.70;;
37297;SDS011;30517;51.932;4.278;2023-04-24T07:47:58;8.65;;;2.45;;
37297;SDS011;30517;51.932;4.278;2023-04-24T07:50:38;7.10;;;2.28;;
37297;SDS011;30517;51.932;4.278;2023-04-24T07:53:19;5.47;;;2.33;;
37297;SDS011;30517;51.932;4.278;2023-04-24T07:56:00;7.88;;;2.15;;
37297;SDS011;30517;51.932;4.278;2023-04-24T07:58:42;7.18;;;2.17;;
37297;SDS011;30517;51.932;4.278;2023-04-24T08:01:23;5.05;;;2.10;;
37297;SDS011;30517;51.932;4.278;2023-04-24T08:04:04;5.65;;;1.92;;
37297;SDS011;30517;51.932;4.278;2023-04-24T08:06:44;5.70;;;1.90;;
37297;SDS011;30517;51.932;4.278;2023-04-24T08:09:25;5.80;;;1.88;;
37297;SDS011;30517;51.932;4.278;2023-04-24T08:12:06;4.60;;;1.90;;
37297;SDS011;30517;51.932;4.278;2023-04-24T08:14:47;5.35;;;1.95;;
37297;SDS011;30517;51.932;4.278;2023-04-24T08:17:28;6.15;;;2.00;;
37297;SDS011;30517;51.932;4.278;2023-04-24T08:20:09;6.32;;;1.88;;
37297;SDS011;30517;51.932;4.278;2023-04-24T08:22:53;4.05;;;1.38;;
37297;SDS011;30517;51.932;4.278;2023-04-24T08:25:35;6.53;;;2.00;;
37297;SDS011;30517;51.932;4.278;2023-04-24T08:28:16;4.63;;;1.67;;
37297;SDS011;30517;51.932;4.278;2023-04-24T08:31:00;7.22;;;1.52;;
37297;SDS011;30517;51.932;4.278;2023-04-24T08:33:40;5.05;;;1.67;;
37297;SDS011;30517;51.932;4.278;2023-04-24T08:36:21;3.95;;;1.60;;
37297;SDS011;30517;51.932;4.278;2023-04-24T08:39:02;4.03;;;1.70;;
37297;SDS011;30517;51.932;4.278;2023-04-24T08:41:43;5.55;;;1.88;;
37297;SDS011;30517;51.932;4.278;2023-04-24T08:44:25;3.65;;;1.40;;
37297;SDS011;30517;51.932;4.278;2023-04-24T08:47:06;6.38;;;1.52;;
37297;SDS011;30517;51.932;4.278;2023-04-24T08:49:48;3.92;;;1.10;;
37297;SDS011;30517;51.932;4.278;2023-04-24T08:52:30;2.47;;;1.13;;
37297;SDS011;30517;51.932;4.278;2023-04-24T08:55:14;4.68;;;1.90;;
37297;SDS011;30517;51.932;4.278;2023-04-24T08:57:58;6.43;;;1.65;;
37297;SDS011;30517;51.932;4.278;2023-04-24T09:00:40;4.90;;;1.13;;
37297;SDS011;30517;51.932;4.278;2023-04-24T09:03:27;6.35;;;1.83;;
37297;SDS011;30517;51.932;4.278;2023-04-24T09:06:09;5.50;;;1.27;;
37297;SDS011;30517;51.932;4.278;2023-04-24T09:08:52;6.13;;;1.20;;
37297;SDS011;30517;51.932;4.278;2023-04-24T09:11:36;4.93;;;1.20;;
37297;SDS011;30517;51.932;4.278;2023-04-24T09:14:17;5.00;;;1.13;;
37297;SDS011;30517;51.932;4.278;2023-04-24T09:17:00;3.50;;;0.80;;
37297;SDS011;30517;51.932;4.278;2023-04-24T09:19:41;4.28;;;1.30;;
37297;SDS011;30517;51.932;4.278;2023-04-24T09:22:21;4.18;;;0.93;;
37297;SDS011;30517;51.932;4.278;2023-04-24T09:25:06;2.28;;;0.77;;
37297;SDS011;30517;51.932;4.278;2023-04-24T09:27:48;4.05;;;1.00;;
37297;SDS011;30517;51.932;4.278;2023-04-24T09:30:30;6.63;;;1.05;;
37297;SDS011;30517;51.932;4.278;2023-04-24T09:33:14;5.10;;;1.15;;
37297;SDS011;30517;51.932;4.278;2023-04-24T09:35:56;3.88;;;0.98;;
37297;SDS011;30517;51.932;4.278;2023-04-24T09:38:38;3.63;;;0.98;;
37297;SDS011;30517;51.932;4.278;2023-04-24T09:41:19;1.55;;;0.75;;
37297;SDS011;30517;51.932;4.278;2023-04-24T09:44:13;5.85;;;1.10;;
37297;SDS011;30517;51.932;4.278;2023-04-24T09:46:56;2.35;;;0.88;;
37297;SDS011;30517;51.932;4.278;2023-04-24T09:49:38;3.83;;;1.00;;
37297;SDS011;30517;51.932;4.278;2023-04-24T09:52:21;2.38;;;0.95;;
37297;SDS011;30517;51.932;4.278;2023-04-24T09:55:02;2.97;;;1.10;;
37297;SDS011;30517;51.932;4.278;2023-04-24T09:58:00;1.48;;;0.80;;
37297;SDS011;30517;51.932;4.278;2023-04-24T10:00:45;1.05;;;0.60;;
37297;SDS011;30517;51.932;4.278;2023-04-24T10:03:27;2.45;;;0.95;;
37297;SDS011;30517;51.932;4.278;2023-04-24T10:06:11;7.68;;;1.30;;
37297;SDS011;30517;51.932;4.278;2023-04-24T10:08:53;3.53;;;1.10;;
37297;SDS011;30517;51.932;4.278;2023-04-24T10:11:34;4.72;;;1.05;;
37297;SDS011;30517;51.932;4.278;2023-04-24T10:14:19;3.45;;;0.98;;
37297;SDS011;30517;51.932;4.278;2023-04-24T10:17:01;2.35;;;0.98;;
37297;SDS011;30517;51.932;4.278;2023-04-24T10:19:43;2.17;;;0.88;;
37297;SDS011;30517;51.932;4.278;2023-04-24T10:22:26;2.50;;;0.90;;
37297;SDS011;30517;51.932;4.278;2023-04-24T10:25:09;4.03;;;1.38;;
37297;SDS011;30517;51.932;4.278;2023-04-24T10:27:51;2.45;;;1.10;;
37297;SDS011;30517;51.932;4.278;2023-04-24T10:30:37;3.50;;;0.95;;
37297;SDS011;30517;51.932;4.278;2023-04-24T10:33:22;3.85;;;1.00;;
37297;SDS011;30517;51.932;4.278;2023-04-24T10:36:04;3.70;;;1.10;;
37297;SDS011;30517;51.932;4.278;2023-04-24T10:38:45;5.20;;;1.38;;
37297;SDS011;30517;51.932;4.278;2023-04-24T10:41:30;5.60;;;1.30;;
37297;SDS011;30517;51.932;4.278;2023-04-24T10:44:12;4.18;;;1.10;;
37297;SDS011;30517;51.932;4.278;2023-04-24T10:46:55;4.30;;;1.15;;
37297;SDS011;30517;51.932;4.278;2023-04-24T10:49:36;2.58;;;0.95;;
37297;SDS011;30517;51.932;4.278;2023-04-24T10:52:17;2.78;;;0.80;;
37297;SDS011;30517;51.932;4.278;2023-04-24T10:54:59;10.23;;;1.92;;
37297;SDS011;30517;51.932;4.278;2023-04-24T10:58:01;5.72;;;1.10;;
37297;SDS011;30517;51.932;4.278;2023-04-24T11:00:43;3.03;;;1.05;;
37297;SDS011;30517;51.932;4.278;2023-04-24T11:03:31;3.80;;;0.88;;
37297;SDS011;30517;51.932;4.278;2023-04-24T11:06:14;4.00;;;1.20;;
37297;SDS011;30517;51.932;4.278;2023-04-24T11:08:58;2.22;;;1.00;;
37297;SDS011;30517;51.932;4.278;2023-04-24T11:11:45;2.75;;;1.00;;
37297;SDS011;30517;51.932;4.278;2023-04-24T11:14:27;3.38;;;1.20;;
37297;SDS011;30517;51.932;4.278;2023-04-24T11:17:08;2.53;;;0.98;;
37297;SDS011;30517;51.932;4.278;2023-04-24T11:19:50;2.20;;;0.70;;
37297;SDS011;30517;51.932;4.278;2023-04-24T11:22:32;4.70;;;1.02;;
37297;SDS011;30517;51.932;4.278;2023-04-24T11:25:16;1.50;;;0.82;;
37297;SDS011;30517;51.932;4.278;2023-04-24T11:28:03;3.65;;;1.10;;
37297;SDS011;30517;51.932;4.278;2023-04-24T11:30:46;3.28;;;1.10;;
37297;SDS011;30517;51.932;4.278;2023-04-24T11:33:27;6.03;;;1.30;;
37297;SDS011;30517;51.932;4.278;2023-04-24T11:36:08;3.90;;;1.02;;
37297;SDS011;30517;51.932;4.278;2023-04-24T11:38:49;4.53;;;1.05;;
37297;SDS011;30517;51.932;4.278;2023-04-24T11:44:14;4.43;;;1.02;;
37297;SDS011;30517;51.932;4.278;2023-04-24T11:46:56;2.97;;;1.13;;
37297;SDS011;30517;51.932;4.278;2023-04-24T11:49:37;3.42;;;0.82;;
37297;SDS011;30517;51.932;4.278;2023-04-24T11:52:18;5.55;;;1.30;;
37297;SDS011;30517;51.932;4.278;2023-04-24T11:55:00;1.77;;;0.90;;
37297;SDS011;30517;51.932;4.278;2023-04-24T11:57:43;6.77;;;1.13;;
37297;SDS011;30517;51.932;4.278;2023-04-24T12:00:26;4.15;;;1.20;;
37297;SDS011;30517;51.932;4.278;2023-04-24T12:03:11;5.07;;;1.13;;
37297;SDS011;30517;51.932;4.278;2023-04-24T12:06:05;3.75;;;1.00;;
37297;SDS011;30517;51.932;4.278;2023-04-24T12:08:47;4.30;;;1.52;;
37297;SDS011;30517;51.932;4.278;2023-04-24T12:11:28;2.28;;;1.00;;
37297;SDS011;30517;51.932;4.278;2023-04-24T12:14:10;5.22;;;1.13;;
37297;SDS011;30517;51.932;4.278;2023-04-24T12:16:54;3.55;;;1.17;;
37297;SDS011;30517;51.932;4.278;2023-04-24T12:19:35;2.85;;;1.00;;
37297;SDS011;30517;51.932;4.278;2023-04-24T12:22:16;5.25;;;1.73;;
37297;SDS011;30517;51.932;4.278;2023-04-24T12:24:58;5.88;;;1.90;;
37297;SDS011;30517;51.932;4.278;2023-04-24T12:27:41;8.82;;;1.38;;
37297;SDS011;30517;51.932;4.278;2023-04-24T12:30:26;2.17;;;0.88;;
37297;SDS011;30517;51.932;4.278;2023-04-24T12:33:08;4.53;;;1.67;;
37297;SDS011;30517;51.932;4.278;2023-04-24T12:35:52;4.22;;;1.10;;
37297;SDS011;30517;51.932;4.278;2023-04-24T12:38:35;5.30;;;1.42;;
37297;SDS011;30517;51.932;4.278;2023-04-24T12:41:20;4.30;;;1.25;;
37297;SDS011;30517;51.932;4.278;2023-04-24T12:44:01;6.28;;;1.42;;
37297;SDS011;30517;51.932;4.278;2023-04-24T12:46:44;5.60;;;1.40;;
37297;SDS011;30517;51.932;4.278;2023-04-24T12:49:25;1.90;;;1.00;;
37297;SDS011;30517;51.932;4.278;2023-04-24T12:52:06;5.78;;;1.80;;
37297;SDS011;30517;51.932;4.278;2023-04-24T12:54:47;5.85;;;1.48;;
37297;SDS011;30517;51.932;4.278;2023-04-24T12:57:29;6.47;;;1.67;;
37297;SDS011;30517;51.932;4.278;2023-04-24T13:00:11;3.65;;;1.60;;
37297;SDS011;30517;51.932;4.278;2023-04-24T13:02:52;6.95;;;1.52;;
37297;SDS011;30517;51.932;4.278;2023-04-24T13:05:33;7.95;;;1.65;;
37297;SDS011;30517;51.932;4.278;2023-04-24T13:08:14;5.40;;;1.75;;
37297;SDS011;30517;51.932;4.278;2023-04-24T13:10:54;9.07;;;1.90;;
37297;SDS011;30517;51.932;4.278;2023-04-24T13:13:35;3.85;;;1.50;;
37297;SDS011;30517;51.932;4.278;2023-04-24T13:16:16;9.68;;;2.40;;
37297;SDS011;30517;51.932;4.278;2023-04-24T13:18:57;5.70;;;1.55;;
37297;SDS011;30517;51.932;4.278;2023-04-24T13:21:38;4.35;;;1.77;;
37297;SDS011;30517;51.932;4.278;2023-04-24T13:24:19;5.70;;;1.65;;
37297;SDS011;30517;51.932;4.278;2023-04-24T13:27:00;10.77;;;2.38;;
37297;SDS011;30517;51.932;4.278;2023-04-24T13:29:42;5.70;;;1.75;;
37297;SDS011;30517;51.932;4.278;2023-04-24T13:32:23;7.43;;;2.25;;
37297;SDS011;30517;51.932;4.278;2023-04-24T13:35:05;5.28;;;1.90;;
37297;SDS011;30517;51.932;4.278;2023-04-24T13:37:46;6.40;;;2.17;;
37297;SDS011;30517;51.932;4.278;2023-04-24T13:40:27;7.15;;;1.92;;
37297;SDS011;30517;51.932;4.278;2023-04-24T13:43:10;9.02;;;2.47;;
37297;SDS011;30517;51.932;4.278;2023-04-24T13:45:51;7.20;;;1.92;;
37297;SDS011;30517;51.932;4.278;2023-04-24T13:48:33;5.78;;;1.65;;
37297;SDS011;30517;51.932;4.278;2023-04-24T13:51:14;4.70;;;1.55;;
37297;SDS011;30517;51.932;4.278;2023-04-24T13:53:55;9.02;;;3.17;;
37297;SDS011;30517;51.932;4.278;2023-04-24T13:56:36;6.78;;;1.70;;
37297;SDS011;30517;51.932;4.278;2023-04-24T13:59:17;6.90;;;2.20;;
37297;SDS011;30517;51.932;4.278;2023-04-24T14:04:41;7.63;;;2.00;;
37297;SDS011;30517;51.932;4.278;2023-04-24T14:07:23;6.47;;;1.70;;
37297;SDS011;30517;51.932;4.278;2023-04-24T14:10:04;6.10;;;1.92;;
37297;SDS011;30517;51.932;4.278;2023-04-24T14:12:45;9.60;;;2.38;;
37297;SDS011;30517;51.932;4.278;2023-04-24T14:15:26;7.97;;;2.40;;
37297;SDS011;30517;51.932;4.278;2023-04-24T14:18:07;7.97;;;2.33;;
37297;SDS011;30517;51.932;4.278;2023-04-24T14:20:48;8.05;;;2.65;;
37297;SDS011;30517;51.932;4.278;2023-04-24T14:23:32;5.32;;;1.95;;
37297;SDS011;30517;51.932;4.278;2023-04-24T14:26:13;8.40;;;2.58;;
37297;SDS011;30517;51.932;4.278;2023-04-24T14:28:56;6.07;;;2.30;;
37297;SDS011;30517;51.932;4.278;2023-04-24T14:31:38;5.65;;;2.22;;
37297;SDS011;30517;51.932;4.278;2023-04-24T14:34:19;6.20;;;2.38;;
37297;SDS011;30517;51.932;4.278;2023-04-24T14:37:00;9.45;;;2.97;;
37297;SDS011;30517;51.932;4.278;2023-04-24T14:39:41;7.18;;;2.35;;
37297;SDS011;30517;51.932;4.278;2023-04-24T14:42:25;7.20;;;2.40;;
37297;SDS011;30517;51.932;4.278;2023-04-24T14:45:06;9.35;;;2.72;;
37297;SDS011;30517;51.932;4.278;2023-04-24T14:47:48;6.32;;;1.90;;
37297;SDS011;30517;51.932;4.278;2023-04-24T14:50:28;5.75;;;2.25;;
37297;SDS011;30517;51.932;4.278;2023-04-24T14:53:09;5.00;;;2.15;;
37297;SDS011;30517;51.932;4.278;2023-04-24T14:55:50;5.30;;;2.15;;
37297;SDS011;30517;51.932;4.278;2023-04-24T14:58:31;8.30;;;3.22;;
37297;SDS011;30517;51.932;4.278;2023-04-24T15:01:13;9.30;;;2.25;;
37297;SDS011;30517;51.932;4.278;2023-04-24T15:03:54;8.23;;;2.33;;
37297;SDS011;30517;51.932;4.278;2023-04-24T15:06:34;5.75;;;2.10;;
37297;SDS011;30517;51.932;4.278;2023-04-24T15:09:16;6.63;;;2.22;;
37297;SDS011;30517;51.932;4.278;2023-04-24T15:11:57;5.10;;;2.33;;
37297;SDS011;30517;51.932;4.278;2023-04-24T15:14:38;7.13;;;2.35;;
37297;SDS011;30517;51.932;4.278;2023-04-24T15:17:18;7.30;;;2.05;;
37297;SDS011;30517;51.932;4.278;2023-04-24T15:19:59;6.97;;;2.28;;
37297;SDS011;30517;51.932;4.278;2023-04-24T15:22:40;6.65;;;2.47;;
37297;SDS011;30517;51.932;4.278;2023-04-24T15:25:21;9.13;;;2.88;;
37297;SDS011;30517;51.932;4.278;2023-04-24T15:28:04;7.97;;;2.42;;
37297;SDS011;30517;51.932;4.278;2023-04-24T15:30:45;6.93;;;2.35;;
37297;SDS011;30517;51.932;4.278;2023-04-24T15:33:26;9.43;;;2.90;;
37297;SDS011;30517;51.932;4.278;2023-04-24T15:36:09;10.50;;;2.60;;
37297;SDS011;30517;51.932;4.278;2023-04-24T15:38:51;9.80;;;2.55;;
37297;SDS011;30517;51.932;4.278;2023-04-24T15:41:32;8.85;;;2.75;;
37297;SDS011;30517;51.932;4.278;2023-04-24T15:44:12;6.50;;;2.30;;
37297;SDS011;30517;51.932;4.278;2023-04-24T15:46:53;8.80;;;2.78;;
37297;SDS011;30517;51.932;4.278;2023-04-24T15:49:35;12.77;;;3.03;;
37297;SDS011;30517;51.932;4.278;2023-04-24T15:52:16;8.18;;;2.78;;
37297;SDS011;30517;51.932;4.278;2023-04-24T15:54:57;6.20;;;2.72;;
37297;SDS011;30517;51.932;4.278;2023-04-24T15:57:38;8.10;;;3.10;;
37297;SDS011;30517;51.932;4.278;2023-04-24T16:00:19;10.02;;;3.33;;
37297;SDS011;30517;51.932;4.278;2023-04-24T16:03:00;9.75;;;2.47;;
37297;SDS011;30517;51.932;4.278;2023-04-24T16:05:41;8.23;;;3.22;;
37297;SDS011;30517;51.932;4.278;2023-04-24T16:08:22;10.52;;;3.20;;
37297;SDS011;30517;51.932;4.278;2023-04-24T16:11:03;9.38;;;3.28;;
37297;SDS011;30517;51.932;4.278;2023-04-24T16:13:44;10.02;;;2.88;;
37297;SDS011;30517;51.932;4.278;2023-04-24T16:16:26;8.30;;;3.08;;
37297;SDS011;30517;51.932;4.278;2023-04-24T16:19:07;6.43;;;2.85;;